Marceline, Missouri
Current Conditions -  °F | °C
As of 12:02 PM on Friday 24 Oct 2014 (Local Time) from KIRK Reporting Station
Haze Haze  
Wind Chill: 60°   Ceiling: 200
Heat Index: 60°   Visibility: 1.2mi
Dew Point: 60°   Wind: 10mph
Humidity: 100%   Direction: 170°S
Pressure: 30.06"   Gusts: NA
Location:  39.71°N, 92.95°W
Report Text: KIRK 241702Z AUTO 17009KT 1 1/4SM BR OVC002 16/16 A3006 RMK AO2 T01560156
Loading
Personal Weather Stations






























Interactive Weather Map
Tropical Storm Tracking
New forecast layout! Learn more

10-Day Weather Forecast

Advertisements
Track Severe Weather on mobile